createdAt,value
2018-08-12T00:00:36.915Z,82.94
2018-08-12T00:01:36.896Z,83.04
2018-08-12T00:02:36.879Z,82.75
2018-08-12T00:03:36.863Z,81.70
2018-08-12T00:04:36.847Z,81.79
2018-08-12T00:05:36.827Z,82.46
2018-08-12T00:06:36.811Z,83.09
2018-08-12T00:07:36.794Z,82.90
2018-08-12T00:08:36.776Z,83.09
2018-08-12T00:09:36.759Z,82.90
2018-08-12T00:10:36.749Z,83.38
2018-08-12T00:11:36.731Z,84.29
2018-08-12T00:12:36.707Z,84.00
2018-08-12T00:13:36.690Z,84.48
2018-08-12T00:14:36.681Z,84.86
2018-08-12T00:15:36.656Z,85.91
2018-08-12T00:16:36.637Z,86.10
2018-08-12T00:17:36.621Z,86.30
2018-08-12T00:18:37.055Z,86.58
2018-08-12T00:19:36.591Z,86.82
2018-08-12T00:20:36.567Z,86.24
2018-08-12T00:21:36.562Z,85.19
2018-08-12T00:22:36.534Z,84.33
2018-08-12T00:23:36.516Z,84.23
2018-08-12T00:24:36.501Z,84.62
2018-08-12T00:25:36.484Z,85.29
2018-08-12T00:26:36.462Z,85.38
2018-08-12T00:27:36.449Z,85.38
2018-08-12T00:28:36.429Z,85.38
2018-08-12T00:29:36.410Z,84.62
2018-08-12T00:30:36.394Z,84.91
2018-08-12T00:31:36.375Z,84.23
2018-08-12T00:32:36.359Z,84.43
2018-08-12T00:33:36.347Z,84.23
2018-08-12T00:34:36.325Z,85.58
2018-08-12T00:35:36.305Z,85.00
2018-08-12T00:36:36.290Z,85.29
2018-08-12T00:37:36.274Z,84.62
2018-08-12T00:38:36.257Z,83.38
2018-08-12T00:39:36.243Z,82.48
2018-08-12T00:40:36.218Z,83.34
2018-08-12T00:41:36.210Z,84.48
2018-08-12T00:42:36.187Z,85.87
2018-08-12T00:43:36.173Z,87.21
2018-08-12T00:44:36.162Z,88.16
2018-08-12T00:45:36.136Z,88.64
2018-08-12T00:46:36.117Z,88.92
2018-08-12T00:47:36.098Z,88.64
2018-08-12T00:48:36.081Z,89.78
2018-08-12T00:49:36.065Z,88.87
2018-08-12T00:50:36.049Z,87.54
2018-08-12T00:51:36.031Z,87.35
2018-08-12T00:52:36.012Z,86.58
2018-08-12T00:53:35.998Z,86.30
2018-08-12T00:54:35.986Z,86.77
2018-08-12T00:55:35.959Z,87.44
2018-08-12T00:56:35.941Z,87.01
2018-08-12T00:57:35.930Z,85.86
2018-08-12T00:58:35.908Z,85.58
2018-08-12T00:59:35.886Z,85.25
2018-08-12T01:00:35.871Z,85.72
2018-08-12T01:01:35.853Z,86.20
2018-08-12T01:02:35.835Z,86.58
2018-08-12T01:03:35.815Z,87.35
2018-08-12T01:04:35.798Z,87.39
2018-08-12T01:05:35.780Z,86.82
2018-08-12T01:06:35.767Z,85.96
2018-08-12T01:07:35.750Z,85.96
2018-08-12T01:08:35.729Z,85.48
2018-08-12T01:09:35.720Z,85.53
2018-08-12T01:10:35.697Z,85.63
2018-08-12T01:11:35.680Z,85.82
2018-08-12T01:12:35.660Z,86.73
2018-08-12T01:13:35.641Z,88.26
2018-08-12T01:14:35.629Z,88.87
2018-08-12T01:15:35.608Z,88.87
2018-08-12T01:16:35.589Z,89.25
2018-08-12T01:17:35.580Z,87.63
2018-08-12T01:18:35.554Z,87.25
2018-08-12T01:19:35.536Z,86.39
2018-08-12T01:20:35.519Z,86.10
2018-08-12T01:21:35.503Z,86.24
2018-08-12T01:22:35.485Z,85.96
2018-08-12T01:23:35.467Z,85.67
2018-08-12T01:24:35.446Z,85.38
2018-08-12T01:25:35.433Z,84.52
2018-08-12T01:26:35.412Z,84.33
2018-08-12T01:27:35.399Z,84.96
2018-08-12T01:28:35.377Z,84.39
2018-08-12T01:29:35.359Z,85.30
2018-08-12T01:30:35.340Z,86.54
2018-08-12T01:31:35.327Z,88.02
2018-08-12T01:32:35.309Z,88.78
2018-08-12T01:33:35.288Z,89.54
2018-08-12T01:34:35.272Z,89.83
2018-08-12T01:35:35.252Z,90.50
2018-08-12T01:36:35.236Z,91.41
2018-08-12T01:37:35.220Z,91.31
2018-08-12T01:38:35.209Z,90.64
2018-08-12T01:39:35.183Z,90.07
2018-08-12T01:40:35.165Z,89.40
2018-08-12T01:41:35.149Z,89.50
2018-08-12T01:42:35.139Z,88.59
2018-08-12T01:43:35.111Z,88.40
2018-08-12T01:44:35.096Z,88.87
2018-08-12T01:45:35.081Z,88.20
2018-08-12T01:46:35.061Z,87.54
2018-08-12T01:47:35.042Z,87.15
2018-08-12T01:48:35.025Z,86.96
2018-08-12T01:49:35.005Z,86.49
2018-08-12T01:50:34.989Z,86.10
2018-08-12T01:51:34.972Z,86.49
2018-08-12T01:52:34.952Z,86.77
2018-08-12T01:53:34.936Z,87.73
2018-08-12T01:54:34.921Z,88.59
2018-08-12T01:55:34.898Z,89.16
2018-08-12T01:56:34.892Z,88.78
2018-08-12T01:57:34.863Z,88.30
2018-08-12T01:58:34.847Z,86.58
2018-08-12T01:59:34.828Z,86.30
2018-08-12T02:00:34.813Z,85.38
2018-08-12T02:01:34.793Z,85.19
2018-08-12T02:02:34.775Z,84.43
2018-08-12T02:03:34.757Z,84.33
2018-08-12T02:04:34.741Z,84.14
2018-08-12T02:05:34.724Z,83.47
2018-08-12T02:06:34.714Z,82.90
2018-08-12T02:07:34.686Z,82.90
2018-08-12T02:08:34.671Z,82.71
2018-08-12T02:09:34.651Z,83.72
2018-08-12T02:10:34.634Z,83.91
2018-08-12T02:11:34.620Z,85.44
2018-08-12T02:12:34.602Z,86.44
2018-08-12T02:13:34.581Z,87.49
2018-08-12T02:14:34.566Z,88.07
2018-08-12T02:15:34.546Z,88.88
2018-08-12T02:16:34.528Z,89.97
2018-08-12T02:17:34.513Z,89.21
2018-08-12T02:18:34.492Z,89.21
2018-08-12T02:19:34.473Z,89.21
2018-08-12T02:20:34.457Z,88.45
2018-08-12T02:21:34.447Z,87.44
2018-08-12T02:22:34.426Z,87.15
2018-08-12T02:23:34.411Z,86.87
2018-08-12T02:24:34.387Z,86.96
2018-08-12T02:25:34.372Z,86.87
2018-08-12T02:26:34.351Z,86.20
2018-08-12T02:27:34.335Z,85.53
2018-08-12T02:28:34.315Z,85.63
2018-08-12T02:29:34.298Z,86.01
2018-08-12T02:30:34.282Z,86.01
2018-08-12T02:31:34.261Z,84.86
2018-08-12T02:32:34.244Z,85.30
2018-08-12T02:33:34.228Z,85.83
2018-08-12T02:34:34.208Z,87.54
2018-08-12T02:35:34.189Z,88.40
2018-08-12T02:36:34.173Z,89.07
2018-08-12T02:37:34.153Z,89.26
2018-08-12T02:38:34.137Z,88.78
2018-08-12T02:39:34.121Z,88.98
2018-08-12T02:40:34.101Z,88.98
2018-08-12T02:41:34.083Z,89.17
2018-08-12T02:42:34.065Z,89.07
2018-08-12T02:43:34.046Z,89.26
2018-08-12T02:44:34.030Z,89.26
2018-08-12T02:45:34.011Z,89.26
2018-08-12T02:46:33.995Z,89.31
2018-08-12T02:47:33.976Z,89.02
2018-08-12T02:48:33.959Z,88.64
2018-08-12T02:49:33.940Z,87.78
2018-08-12T02:50:33.929Z,87.30
2018-08-12T02:51:33.904Z,87.40
2018-08-12T02:52:33.887Z,87.40
2018-08-12T02:53:33.868Z,86.82
2018-08-12T02:54:33.851Z,87.25
2018-08-12T02:55:33.832Z,86.77
2018-08-12T02:56:33.814Z,86.58
2018-08-12T02:57:33.807Z,86.77
2018-08-12T02:58:33.779Z,86.68
2018-08-12T02:59:33.760Z,86.58
2018-08-12T03:00:33.745Z,84.44
2018-08-12T03:01:33.725Z,84.53
2018-08-12T03:02:33.707Z,85.11
2018-08-12T03:03:33.704Z,86.49
2018-08-12T03:04:33.672Z,87.07
2018-08-12T03:05:33.656Z,87.35
2018-08-12T03:06:33.648Z,87.35
2018-08-12T03:07:33.616Z,87.54
2018-08-12T03:08:33.600Z,87.64
2018-08-12T03:09:33.585Z,87.74
2018-08-12T03:10:33.569Z,88.40
2018-08-12T03:11:33.546Z,88.98
2018-08-12T03:12:33.531Z,89.26
2018-08-12T03:13:33.507Z,88.59
2018-08-12T03:14:33.488Z,88.40
2018-08-12T03:15:33.476Z,88.59
2018-08-12T03:16:33.454Z,88.31
2018-08-12T03:17:33.457Z,87.16
2018-08-12T03:18:33.418Z,86.02
2018-08-12T03:19:33.408Z,86.02
2018-08-12T03:20:33.384Z,86.45
2018-08-12T03:21:33.364Z,87.98
2018-08-12T03:22:33.372Z,89.03
2018-08-12T03:23:33.335Z,89.79
2018-08-12T03:24:33.311Z,89.98
2018-08-12T03:25:33.295Z,90.08
2018-08-12T03:26:33.276Z,90.17
2018-08-12T03:27:33.256Z,90.03
2018-08-12T03:28:33.238Z,89.45
2018-08-12T03:29:33.221Z,89.54
2018-08-12T03:30:33.201Z,89.74
2018-08-12T03:31:33.186Z,88.98
2018-08-12T03:32:33.165Z,89.26
2018-08-12T03:33:33.149Z,89.07
2018-08-12T03:34:33.129Z,89.07
2018-08-12T03:35:33.112Z,88.59
2018-08-12T03:36:33.093Z,88.21
2018-08-12T03:37:33.074Z,87.93
2018-08-12T03:38:33.068Z,88.78
2018-08-12T03:39:33.039Z,88.50
2018-08-12T03:40:33.021Z,89.07
2018-08-12T03:41:33.001Z,89.26
2018-08-12T03:42:32.986Z,88.98
2018-08-12T03:43:32.964Z,88.50
2018-08-12T03:44:32.946Z,88.21
2018-08-12T03:45:32.934Z,88.12
2018-08-12T03:46:32.911Z,88.40
2018-08-12T03:47:32.892Z,89.07
2018-08-12T03:48:32.877Z,88.50
2018-08-12T03:49:32.855Z,88.12
2018-08-12T03:50:32.840Z,88.40
2018-08-12T03:51:32.823Z,88.88
2018-08-12T03:52:32.803Z,88.88
2018-08-12T03:53:32.785Z,88.98
2018-08-12T03:54:32.766Z,89.07
2018-08-12T03:55:32.748Z,89.17
2018-08-12T03:56:32.730Z,88.88
2018-08-12T03:57:32.713Z,88.78
2018-08-12T03:58:32.695Z,89.26
2018-08-12T03:59:32.676Z,89.64
2018-08-12T04:00:32.657Z,89.83
2018-08-12T04:01:32.644Z,89.26
2018-08-12T04:02:32.622Z,88.98
2018-08-12T04:03:32.601Z,89.26
2018-08-12T04:04:32.587Z,89.26
2018-08-12T04:05:32.576Z,90.03
2018-08-12T04:06:32.548Z,90.03
2018-08-12T04:07:32.532Z,89.26
2018-08-12T04:08:32.512Z,89.12
2018-08-12T04:09:32.499Z,88.35
2018-08-12T04:10:32.478Z,88.35
2018-08-12T04:11:32.459Z,87.49
2018-08-12T04:12:32.442Z,87.59
2018-08-12T04:13:32.423Z,86.92
2018-08-12T04:14:32.403Z,85.83
2018-08-12T04:15:32.385Z,85.73
2018-08-12T04:16:32.366Z,86.55
2018-08-12T04:17:32.351Z,87.88
2018-08-12T04:18:32.362Z,89.03
2018-08-12T04:19:32.311Z,89.69
2018-08-12T04:20:32.303Z,90.41
2018-08-12T04:21:32.276Z,90.12
2018-08-12T04:22:32.260Z,90.22
2018-08-12T04:23:32.239Z,89.64
2018-08-12T04:24:32.221Z,90.31
2018-08-12T04:25:32.211Z,90.12
2018-08-12T04:26:32.191Z,90.12
2018-08-12T04:27:32.168Z,90.31
2018-08-12T04:28:32.148Z,89.64
2018-08-12T04:29:32.130Z,90.31
2018-08-12T04:30:32.113Z,90.12
2018-08-12T04:31:32.095Z,91.17
2018-08-12T04:32:32.077Z,91.46
2018-08-12T04:33:32.057Z,90.41
2018-08-12T04:34:32.040Z,89.64
2018-08-12T04:35:32.023Z,89.54
2018-08-12T04:36:32.007Z,89.83
2018-08-12T04:37:31.984Z,90.03
2018-08-12T04:38:31.966Z,90.79
2018-08-12T04:39:31.949Z,91.36
2018-08-12T04:40:31.930Z,90.41
2018-08-12T04:41:31.912Z,90.22
2018-08-12T04:42:31.900Z,90.45
2018-08-12T04:43:31.876Z,90.36
2018-08-12T04:44:31.862Z,89.97
2018-08-12T04:45:31.843Z,89.69
2018-08-12T04:46:31.822Z,89.40
2018-08-12T04:47:31.806Z,89.50
2018-08-12T04:48:31.791Z,88.92
2018-08-12T04:49:31.773Z,88.83
2018-08-12T04:50:31.749Z,89.59
2018-08-12T04:51:31.734Z,89.59
2018-08-12T04:52:31.711Z,89.69
2018-08-12T04:53:31.699Z,88.92
2018-08-12T04:54:31.678Z,88.64
2018-08-12T04:55:31.659Z,88.45
2018-08-12T04:56:31.640Z,88.35
2018-08-12T04:57:31.621Z,88.59
2018-08-12T04:58:31.605Z,88.78
2018-08-12T04:59:31.597Z,89.26
2018-08-12T05:00:31.567Z,89.83
2018-08-12T05:01:31.553Z,90.12
2018-08-12T05:02:31.534Z,90.59
2018-08-12T05:03:31.513Z,90.88
2018-08-12T05:04:31.498Z,90.88
2018-08-12T05:05:31.478Z,90.83
2018-08-12T05:06:31.464Z,90.83
2018-08-12T05:07:31.443Z,90.36
2018-08-12T05:08:31.426Z,91.31
2018-08-12T05:09:31.405Z,90.83
2018-08-12T05:10:31.389Z,89.69
2018-08-12T05:11:31.370Z,89.12
2018-08-12T05:12:31.353Z,89.06
2018-08-12T05:13:31.337Z,89.16
2018-08-12T05:14:31.315Z,88.49
2018-08-12T05:15:31.299Z,88.68
2018-08-12T05:16:31.289Z,87.73
2018-08-12T05:17:31.262Z,88.06
2018-08-12T05:18:31.247Z,88.06
2018-08-12T05:19:31.224Z,88.44
2018-08-12T05:20:31.210Z,86.91
2018-08-12T05:21:31.194Z,86.24
2018-08-12T05:22:31.173Z,84.81
2018-08-12T05:23:31.154Z,84.47
2018-08-12T05:24:31.140Z,83.61
2018-08-12T05:25:31.119Z,83.23
2018-08-12T05:26:31.100Z,82.84
2018-08-12T05:27:31.086Z,83.23
2018-08-12T05:28:31.065Z,81.41
2018-08-12T05:29:31.047Z,81.51
2018-08-12T05:30:31.029Z,82.03
2018-08-12T05:31:31.010Z,81.07
2018-08-12T05:32:30.991Z,81.55
2018-08-12T05:33:30.978Z,80.40
2018-08-12T05:34:30.960Z,80.40
2018-08-12T05:35:30.940Z,79.64
2018-08-12T05:36:30.921Z,79.06
2018-08-12T05:37:30.907Z,79.64
2018-08-12T05:38:30.887Z,79.16
2018-08-12T05:39:30.869Z,78.58
2018-08-12T05:40:30.852Z,78.11
2018-08-12T05:41:30.834Z,79.16
2018-08-12T05:42:30.820Z,79.64
2018-08-12T05:43:30.800Z,77.92
2018-08-12T05:44:30.780Z,77.82
2018-08-12T05:45:30.763Z,77.92
2018-08-12T05:46:30.746Z,78.14
2018-08-12T05:47:30.727Z,77.63
2018-08-12T05:48:30.710Z,76.96
2018-08-12T05:49:30.700Z,76.23
2018-08-12T05:50:30.675Z,77.09
2018-08-12T05:51:30.793Z,76.62
2018-08-12T05:52:30.640Z,77.09
2018-08-12T05:53:30.621Z,76.90
2018-08-12T05:54:30.604Z,76.42
2018-08-12T05:55:30.585Z,75.09
2018-08-12T05:56:30.581Z,75.95
2018-08-12T05:57:30.551Z,75.76
2018-08-12T05:58:30.534Z,75.76
2018-08-12T05:59:30.515Z,75.27
2018-08-12T06:00:30.508Z,76.04
2018-08-12T06:01:30.484Z,75.56
2018-08-12T06:02:30.465Z,75.47
2018-08-12T06:03:30.446Z,74.99
2018-08-12T06:04:30.427Z,74.99
2018-08-12T06:05:30.422Z,75.41
2018-08-12T06:06:30.396Z,75.09
2018-08-12T06:07:30.380Z,75.22
2018-08-12T06:08:30.358Z,75.66
2018-08-12T06:09:30.344Z,75.60
2018-08-12T06:10:30.331Z,75.79
2018-08-12T06:11:30.318Z,75.60
2018-08-12T06:12:30.293Z,75.02
2018-08-12T06:13:30.270Z,75.70
2018-08-12T06:14:30.253Z,75.79
2018-08-12T06:15:30.299Z,74.84
2018-08-12T06:16:30.223Z,74.74
2018-08-12T06:17:30.297Z,74.55
2018-08-12T06:18:30.185Z,74.55
2018-08-12T06:19:30.168Z,74.55
2018-08-12T06:20:30.151Z,74.74
2018-08-12T06:21:30.133Z,73.40
2018-08-12T06:22:30.117Z,73.24
2018-08-12T06:23:30.096Z,73.82
2018-08-12T06:24:30.094Z,74.11
2018-08-12T06:25:30.064Z,73.24
2018-08-12T06:26:30.045Z,73.82
2018-08-12T06:27:30.027Z,73.72
2018-08-12T06:28:30.012Z,73.72
2018-08-12T06:29:29.995Z,74.11
2018-08-12T06:30:29.978Z,72.96
2018-08-12T06:31:29.986Z,72.38
2018-08-12T06:32:29.943Z,72.19
2018-08-12T06:33:29.925Z,72.09
2018-08-12T06:34:30.005Z,71.84
2018-08-12T06:35:29.888Z,71.52
2018-08-12T06:36:29.874Z,70.50
2018-08-12T06:37:29.856Z,70.76
2018-08-12T06:38:29.844Z,70.12
2018-08-12T06:39:29.826Z,70.50
2018-08-12T06:40:29.807Z,71.75
2018-08-12T06:41:29.791Z,70.98
2018-08-12T06:42:29.774Z,70.70
2018-08-12T06:43:29.758Z,70.89
2018-08-12T06:44:29.736Z,71.08
2018-08-12T06:45:29.718Z,70.50
2018-08-12T06:46:29.739Z,70.70
2018-08-12T06:47:29.684Z,70.60
2018-08-12T06:48:29.671Z,69.93
2018-08-12T06:49:29.655Z,70.21
2018-08-12T06:50:29.632Z,69.93
2018-08-12T06:51:29.617Z,69.39
2018-08-12T06:52:29.597Z,69.01
2018-08-12T06:53:29.581Z,69.01
2018-08-12T06:54:29.567Z,69.77
2018-08-12T06:55:29.544Z,69.58
2018-08-12T06:56:29.530Z,69.20
2018-08-12T06:57:29.512Z,68.62
2018-08-12T06:58:29.497Z,70.06
2018-08-12T06:59:29.476Z,69.33
2018-08-12T07:00:29.527Z,67.69
2018-08-12T07:01:29.446Z,67.79
2018-08-12T07:02:29.426Z,67.60
2018-08-12T07:03:29.409Z,68.56
2018-08-12T07:04:29.392Z,67.69
2018-08-12T07:05:29.383Z,66.83
2018-08-12T07:06:29.361Z,67.50
2018-08-12T07:07:29.341Z,67.69
2018-08-12T07:08:29.325Z,66.45
2018-08-12T07:09:29.316Z,65.49
2018-08-12T07:10:29.290Z,65.91
2018-08-12T07:11:29.272Z,65.91
2018-08-12T07:12:29.259Z,66.00
2018-08-12T07:13:29.239Z,66.00
2018-08-12T07:14:29.278Z,64.47
2018-08-12T07:15:29.208Z,65.43
2018-08-12T07:16:29.187Z,65.27
2018-08-12T07:17:29.186Z,64.69
2018-08-12T07:18:29.155Z,62.58
2018-08-12T07:19:29.137Z,63.06
2018-08-12T07:20:29.128Z,62.77
2018-08-12T07:21:29.104Z,62.77
2018-08-12T07:22:29.094Z,62.19
2018-08-12T07:23:29.070Z,62.48
2018-08-12T07:24:29.056Z,64.25
2018-08-12T07:25:29.041Z,62.81
2018-08-12T07:26:29.022Z,61.84
2018-08-12T07:27:29.007Z,62.23
2018-08-12T07:28:28.989Z,61.36
2018-08-12T07:29:28.971Z,60.43
2018-08-12T07:30:28.957Z,61.11
2018-08-12T07:31:28.938Z,60.72
2018-08-12T07:32:28.922Z,60.53
2018-08-12T07:33:28.903Z,60.14
2018-08-12T07:34:28.888Z,58.92
2018-08-12T07:35:28.872Z,59.41
2018-08-12T07:36:28.871Z,58.80
2018-08-12T07:37:28.841Z,58.83
2018-08-12T07:38:28.828Z,58.15
2018-08-12T07:39:28.811Z,57.58
2018-08-12T07:40:28.799Z,58.25
2018-08-12T07:41:28.778Z,58.06
2018-08-12T07:42:28.757Z,57.97
2018-08-12T07:43:28.742Z,57.60
2018-08-12T07:44:28.725Z,58.47
2018-08-12T07:45:28.719Z,56.74
2018-08-12T07:46:28.692Z,56.45
2018-08-12T07:47:28.676Z,57.13
2018-08-12T07:48:28.662Z,56.45
2018-08-12T07:49:28.654Z,57.32
2018-08-12T07:50:28.628Z,55.90
2018-08-12T07:51:28.612Z,55.52
2018-08-12T07:52:28.595Z,55.52
2018-08-12T07:53:28.584Z,55.81
2018-08-12T07:54:28.564Z,55.04
2018-08-12T07:55:28.609Z,54.68
2018-08-12T07:56:28.535Z,55.83
2018-08-12T07:57:28.519Z,55.16
2018-08-12T07:58:28.503Z,54.97
2018-08-12T07:59:28.492Z,54.58
2018-08-12T08:00:28.477Z,53.72
2018-08-12T08:01:28.454Z,51.98
2018-08-12T08:02:28.457Z,51.89
2018-08-12T08:03:28.425Z,53.43
2018-08-12T08:04:28.408Z,51.98
2018-08-12T08:05:28.394Z,52.01
2018-08-12T08:06:28.378Z,52.11
2018-08-12T08:07:28.364Z,52.01
2018-08-12T08:08:28.353Z,50.95
2018-08-12T08:09:28.332Z,51.07
2018-08-12T08:10:28.317Z,52.49
2018-08-12T08:11:28.309Z,51.34
2018-08-12T08:12:28.328Z,51.72
2018-08-12T08:13:28.270Z,51.94
2018-08-12T08:14:28.257Z,51.94
2018-08-12T08:15:28.239Z,50.49
2018-08-12T08:16:28.223Z,50.21
2018-08-12T08:17:28.213Z,50.49
2018-08-12T08:18:28.193Z,50.30
2018-08-12T08:19:28.196Z,49.34
2018-08-12T08:20:28.165Z,49.43
2018-08-12T08:21:28.151Z,51.36
2018-08-12T08:22:28.137Z,50.11
2018-08-12T08:23:28.118Z,50.78
2018-08-12T08:24:28.104Z,50.30
2018-08-12T08:25:28.126Z,50.88
2018-08-12T08:26:28.077Z,50.21
2018-08-12T08:27:28.061Z,49.82
2018-08-12T08:28:28.043Z,49.34
2018-08-12T08:29:28.038Z,49.24
2018-08-12T08:30:28.024Z,50.11
2018-08-12T08:31:28.049Z,49.65
2018-08-12T08:32:27.983Z,49.43
2018-08-12T08:33:27.967Z,49.75
2018-08-12T08:34:27.964Z,48.97
2018-08-12T08:35:27.940Z,48.69
2018-08-12T08:36:27.924Z,49.07
2018-08-12T08:37:27.908Z,48.88
2018-08-12T08:38:27.897Z,48.88
2018-08-12T08:39:27.881Z,48.30
2018-08-12T08:40:27.873Z,48.40
2018-08-12T08:41:27.850Z,48.59
2018-08-12T08:42:27.841Z,48.97
2018-08-12T08:43:27.827Z,48.11
2018-08-12T08:44:27.817Z,48.49
2018-08-12T08:45:27.796Z,49.10
2018-08-12T08:46:27.777Z,48.61
2018-08-12T08:47:27.765Z,49.29
2018-08-12T08:48:27.749Z,48.81
2018-08-12T08:49:27.737Z,47.94
2018-08-12T08:50:27.726Z,48.61
2018-08-12T08:51:27.704Z,48.33
2018-08-12T08:52:27.695Z,48.03
2018-08-12T08:53:27.675Z,49.00
2018-08-12T08:54:27.660Z,49.77
2018-08-12T08:55:27.648Z,48.35
2018-08-12T08:56:27.631Z,48.74
2018-08-12T08:57:27.617Z,48.64
2018-08-12T08:58:27.606Z,48.64
2018-08-12T08:59:27.592Z,47.87
2018-08-12T09:00:27.580Z,48.74
2018-08-12T09:01:27.655Z,48.76
2018-08-12T09:02:27.544Z,48.57
2018-08-12T09:03:27.534Z,47.99
2018-08-12T09:04:27.516Z,47.12
2018-08-12T09:05:27.502Z,47.60
2018-08-12T09:06:27.488Z,47.12
2018-08-12T09:07:27.475Z,47.41
2018-08-12T09:08:27.711Z,47.02
2018-08-12T09:09:27.448Z,46.92
2018-08-12T09:10:27.432Z,47.22
2018-08-12T09:11:27.419Z,47.41
2018-08-12T09:12:27.413Z,47.89
2018-08-12T09:13:27.393Z,47.12
2018-08-12T09:14:27.375Z,47.22
2018-08-12T09:15:27.369Z,47.63
2018-08-12T09:16:27.349Z,46.85
2018-08-12T09:17:27.336Z,46.08
2018-08-12T09:18:27.326Z,46.17
2018-08-12T09:19:27.309Z,47.81
2018-08-12T09:20:27.292Z,46.56
2018-08-12T09:21:27.281Z,45.98
2018-08-12T09:22:27.266Z,46.75
2018-08-12T09:23:27.255Z,45.50
2018-08-12T09:24:27.247Z,46.85
2018-08-12T09:25:27.224Z,47.14
2018-08-12T09:26:27.216Z,46.68
2018-08-12T09:27:27.195Z,45.91
2018-08-12T09:28:27.196Z,45.72
2018-08-12T09:29:27.176Z,45.72
2018-08-12T09:30:27.156Z,45.33
2018-08-12T09:31:27.146Z,45.81
2018-08-12T09:32:27.128Z,46.88
2018-08-12T09:33:27.119Z,45.93
2018-08-12T09:34:27.100Z,45.64
2018-08-12T09:35:27.087Z,46.10
2018-08-12T09:36:27.079Z,46.10
2018-08-12T09:37:27.061Z,45.91
2018-08-12T09:38:27.047Z,47.16
2018-08-12T09:39:27.038Z,46.97
2018-08-12T09:40:27.023Z,46.68
2018-08-12T09:41:27.007Z,46.03
2018-08-12T09:42:26.995Z,46.03
2018-08-12T09:43:26.980Z,46.51
2018-08-12T09:44:26.967Z,47.67
2018-08-12T09:45:26.960Z,47.28
2018-08-12T09:46:26.944Z,46.90
2018-08-12T09:47:26.924Z,45.83
2018-08-12T09:48:26.915Z,45.54
2018-08-12T09:49:26.907Z,46.03
2018-08-12T09:50:26.888Z,46.70
2018-08-12T09:51:26.929Z,46.32
2018-08-12T09:52:26.861Z,47.00
2018-08-12T09:53:26.844Z,47.00
2018-08-12T09:54:26.837Z,46.90
2018-08-12T09:55:26.820Z,47.67
2018-08-12T09:56:26.823Z,46.80
2018-08-12T09:57:26.838Z,46.63
2018-08-12T09:58:26.867Z,46.83
2018-08-12T09:59:26.772Z,45.18
2018-08-12T10:00:26.826Z,46.22
2018-08-12T10:01:26.741Z,46.80
2018-08-12T10:02:26.727Z,47.67
2018-08-12T10:03:26.713Z,47.02
2018-08-12T10:04:26.702Z,46.83
2018-08-12T10:05:26.691Z,47.09
2018-08-12T10:06:26.680Z,47.41
2018-08-12T10:07:26.676Z,47.21
2018-08-12T10:08:26.653Z,48.08
2018-08-12T10:09:26.635Z,45.95
2018-08-12T10:10:26.633Z,45.37
2018-08-12T10:11:26.611Z,45.76
2018-08-12T10:12:26.600Z,44.89
2018-08-12T10:13:26.587Z,45.57
2018-08-12T10:14:26.575Z,45.57
2018-08-12T10:15:26.583Z,47.21
2018-08-12T10:16:26.545Z,45.76
2018-08-12T10:17:26.536Z,47.50
2018-08-12T10:18:26.520Z,47.02
2018-08-12T10:19:26.513Z,46.46
2018-08-12T10:20:26.498Z,47.43
2018-08-12T10:21:26.498Z,45.59
2018-08-12T10:22:26.466Z,45.98
2018-08-12T10:23:26.465Z,46.46
2018-08-12T10:24:26.470Z,45.68
2018-08-12T10:25:26.436Z,48.11
2018-08-12T10:26:26.420Z,46.08
2018-08-12T10:27:26.404Z,47.14
2018-08-12T10:28:26.397Z,47.33
2018-08-12T10:29:26.377Z,48.69
2018-08-12T10:30:26.375Z,47.16
2018-08-12T10:31:26.359Z,45.81
2018-08-12T10:32:26.339Z,46.97
2018-08-12T10:33:26.328Z,46.29
2018-08-12T10:34:26.315Z,47.16
2018-08-12T10:35:26.305Z,45.61
2018-08-12T10:36:26.297Z,44.64
2018-08-12T10:37:26.291Z,44.64
2018-08-12T10:38:26.276Z,45.32
2018-08-12T10:39:26.248Z,44.96
2018-08-12T10:40:26.237Z,45.42
2018-08-12T10:41:26.225Z,45.54
2018-08-12T10:42:26.210Z,43.99
2018-08-12T10:43:26.213Z,44.57
2018-08-12T10:44:26.203Z,43.89
2018-08-12T10:45:26.174Z,45.44
2018-08-12T10:46:26.166Z,43.21
2018-08-12T10:47:26.152Z,43.12
2018-08-12T10:48:26.137Z,43.79
2018-08-12T10:49:26.128Z,43.60
2018-08-12T10:50:26.115Z,44.18
2018-08-12T10:51:26.103Z,45.92
2018-08-12T10:52:26.088Z,45.34
2018-08-12T10:53:26.074Z,44.09
2018-08-12T10:54:26.064Z,45.44
2018-08-12T10:55:26.052Z,44.30
2018-08-12T10:56:26.051Z,43.33
2018-08-12T10:57:26.027Z,43.89
2018-08-12T10:58:26.020Z,43.70
2018-08-12T10:59:26.088Z,43.02
2018-08-12T11:00:25.988Z,42.72
2018-08-12T11:01:25.979Z,43.12
2018-08-12T11:02:25.963Z,44.37
2018-08-12T11:03:25.953Z,43.50
2018-08-12T11:04:25.951Z,44.57
2018-08-12T11:05:25.929Z,44.18
2018-08-12T11:06:25.913Z,44.20
2018-08-12T11:07:25.951Z,43.13
2018-08-12T11:08:25.889Z,42.55
2018-08-12T11:09:25.884Z,44.40
2018-08-12T11:10:25.867Z,44.20
2018-08-12T11:11:25.852Z,43.23
2018-08-12T11:12:25.850Z,44.40
2018-08-12T11:13:25.831Z,43.33
2018-08-12T11:14:25.821Z,43.45
2018-08-12T11:15:25.807Z,43.64
2018-08-12T11:16:25.801Z,43.33
2018-08-12T11:17:25.780Z,43.35
2018-08-12T11:18:25.772Z,42.96
2018-08-12T11:19:25.757Z,44.40
2018-08-12T11:20:25.773Z,44.20
2018-08-12T11:21:25.738Z,43.45
2018-08-12T11:22:25.729Z,43.64
2018-08-12T11:23:25.706Z,42.65
2018-08-12T11:24:25.703Z,43.43
2018-08-12T11:25:25.683Z,43.33
2018-08-12T11:26:25.681Z,42.94
2018-08-12T11:27:25.658Z,44.59
2018-08-12T11:28:25.692Z,43.12
2018-08-12T11:29:25.636Z,43.31
2018-08-12T11:30:25.634Z,44.40
2018-08-12T11:31:25.609Z,44.59
2018-08-12T11:32:25.602Z,45.47
2018-08-12T11:33:25.593Z,43.23
2018-08-12T11:34:25.581Z,42.75
2018-08-12T11:35:25.562Z,45.34
2018-08-12T11:36:25.549Z,44.86
2018-08-12T11:37:25.540Z,44.86
2018-08-12T11:38:25.532Z,43.50
2018-08-12T11:39:25.535Z,44.01
2018-08-12T11:40:25.504Z,43.43
2018-08-12T11:41:25.496Z,44.30
2018-08-12T11:42:25.477Z,45.95
2018-08-12T11:43:25.473Z,44.88
2018-08-12T11:44:25.455Z,44.88
2018-08-12T11:45:25.446Z,43.82
2018-08-12T11:46:25.432Z,43.72
2018-08-12T11:47:25.454Z,43.23
2018-08-12T11:48:25.406Z,44.13
2018-08-12T11:49:25.401Z,44.32
2018-08-12T11:50:25.386Z,42.29
2018-08-12T11:51:25.376Z,42.96
2018-08-12T11:52:25.365Z,43.64
2018-08-12T11:53:25.353Z,42.86
2018-08-12T11:54:25.370Z,42.85
2018-08-12T11:55:25.340Z,42.46
2018-08-12T11:56:25.312Z,42.94
2018-08-12T11:57:25.327Z,43.43
2018-08-12T11:58:25.286Z,43.13
2018-08-12T11:59:25.277Z,42.46
2018-08-12T12:00:25.263Z,42.57
2018-08-12T12:01:25.261Z,43.35
2018-08-12T12:02:25.247Z,44.23
2018-08-12T12:03:25.238Z,42.48
2018-08-12T12:04:25.217Z,42.29
2018-08-12T12:05:25.216Z,42.38
2018-08-12T12:06:25.197Z,42.57
2018-08-12T12:07:25.182Z,42.77
2018-08-12T12:08:25.182Z,43.47
2018-08-12T12:09:25.164Z,42.69
2018-08-12T12:10:25.146Z,43.08
2018-08-12T12:11:25.132Z,41.72
2018-08-12T12:12:25.120Z,42.02
2018-08-12T12:13:25.109Z,41.92
2018-08-12T12:14:25.112Z,44.56
2018-08-12T12:15:25.093Z,41.64
2018-08-12T12:16:25.077Z,42.91
2018-08-12T12:17:25.063Z,41.26
2018-08-12T12:18:25.049Z,41.74
2018-08-12T12:19:25.057Z,40.97
2018-08-12T12:20:25.093Z,41.55
2018-08-12T12:21:25.015Z,42.50
2018-08-12T12:22:25.003Z,43.95
2018-08-12T12:23:24.990Z,42.21
2018-08-12T12:24:24.978Z,42.60
2018-08-12T12:25:24.974Z,43.76
2018-08-12T12:26:24.957Z,42.91
2018-08-12T12:27:24.946Z,42.13
2018-08-12T12:28:24.932Z,40.00
2018-08-12T12:29:24.922Z,40.58
2018-08-12T12:30:24.909Z,40.58
2018-08-12T12:31:24.908Z,41.64
2018-08-12T12:32:24.887Z,41.72
2018-08-12T12:33:24.874Z,41.92
2018-08-12T12:34:24.861Z,42.11
2018-08-12T12:35:24.906Z,42.43
2018-08-12T12:36:24.837Z,41.94
2018-08-12T12:37:24.830Z,41.74
2018-08-12T12:38:24.815Z,42.13
2018-08-12T12:39:24.803Z,42.03
2018-08-12T12:40:24.793Z,41.74
2018-08-12T12:41:24.781Z,42.71
2018-08-12T12:42:24.840Z,40.67
2018-08-12T12:43:24.771Z,41.55
2018-08-12T12:44:24.746Z,42.35
2018-08-12T12:45:24.741Z,41.74
2018-08-12T12:46:24.729Z,41.36
2018-08-12T12:47:24.722Z,40.87
2018-08-12T12:48:24.698Z,41.55
2018-08-12T12:49:24.713Z,40.97
2018-08-12T12:50:24.805Z,40.97
2018-08-12T12:51:24.665Z,42.11
2018-08-12T12:52:24.653Z,42.03